Flight Track Log - Related Links

Times and Time Zones

All times are in EDT time to prevent confusion due to time zone crossing. See the SKW4968 flight status page for this flight to view local times or setup timezone preferences in your user account.

Time Position Orientation Groundspeed Altitude Reporting Facility
EDT Latitude Longitude Course Direction KTS MPH feet Rate Location/Type
Thu 07:04:05 PM 29.9575 -95.3442 337° Northwest 175 201 700  Level Houston Center
Thu 07:05:13 PM 29.9456 -95.3961 255° West 243 280 2,500 1,545 Climbing Houston Center
Thu 07:05:46 PM 29.9808 -95.4061 346° North 250 288 3,300 2,084 Climbing Houston Center
Thu 07:06:48 PM 30.0558 -95.3997 North 267 307 5,800 2,419 Climbing Houston Center
Thu 07:07:00 PM 30.4152 -95.5862 334° Northwest  Level FlightAware Approximate
Thu 07:07:50 PM 30.1342 -95.3964 North 279 321 8,300  Level Houston Center
Thu 07:08:00 PM 30.5249 -95.6458 337° Northwest  Level FlightAware Approximate
Thu 07:08:52 PM 30.2131 -95.4222 344° North 312 359 10,200  Level Houston Center
Thu 07:09:00 PM 30.6362 -95.7014 337° Northwest  Level FlightAware Approximate
Thu 07:09:54 PM 30.2919 -95.4792 328° Northwest 334 384 11,600  Level Houston Center
Thu 07:10:57 PM 30.3936 -95.5511 329° Northwest 356 410 13,700 1,920 Climbing Houston Center
Thu 07:11:59 PM 30.4800 -95.6131 328° Northwest 363 418 15,600 1,887 Climbing Houston Center
Thu 07:13:01 PM 30.5706 -95.6706 331° Northwest 367 422 17,600 1,597 Climbing Houston Center
Thu 07:14:03 PM 30.6672 -95.7214 336° Northwest 379 436 18,900 1,355 Climbing Houston Center
Thu 07:15:05 PM 30.7806 -95.7833 335° Northwest 393 452 20,400 1,355 Climbing Houston Center
Thu 07:16:07 PM 30.8817 -95.8372 335° Northwest 399 459 21,700 1,355 Climbing Houston Center
Thu 07:17:09 PM 30.9847 -95.8936 335° Northwest 405 466 23,200 1,258 Climbing Houston Center
Thu 07:18:11 PM 31.0903 -95.9494 336° Northwest 410 472 24,300 1,016 Climbing Houston Center
Thu 07:19:13 PM 31.2033 -95.9978 340° North 425 489 25,300 1,065 Climbing Houston Center
Thu 07:20:15 PM 31.3192 -96.0425 342° North 432 497 26,500 1,258 Climbing Houston Center
Thu 07:21:17 PM 31.4533 -96.1106 337° Northwest 437 503 27,900 1,065 Climbing Houston Center
Thu 07:22:19 PM 31.5597 -96.1886 328° Northwest 449 517 28,700 871 Climbing Houston Center
Thu 07:23:21 PM 31.6675 -96.2664 328° Northwest 450 518 29,700 1,016 Climbing Houston Center
Thu 07:24:23 PM 31.7764 -96.3464 328° Northwest 455 524 30,800 1,065 Climbing Houston Center
Thu 07:25:25 PM 31.8844 -96.4253 328° Northwest 454 522 31,900 563 Climbing Houston Center
Thu 07:26:31 PM 32.0014 -96.5167 326° Northwest 450 518 32,000 48 Climbing Fort Worth Center
Thu 07:27:31 PM 32.1083 -96.5967 328° Northwest 462 532 32,000 500 Level Fort Worth Center
Thu 07:28:31 PM 32.2153 -96.6767 328° Northwest 462 532 33,000 1,000 Climbing Fort Worth Center
Thu 07:29:31 PM 32.3203 -96.7569 327° Northwest 457 526 34,000 500 Climbing Fort Worth Center
Thu 07:30:31 PM 32.4106 -96.8672 314° West 457 526 34,000  Level Fort Worth Center
Thu 07:31:31 PM 32.4986 -96.9800 313° West 457 526 34,000  Level Fort Worth Center
Thu 07:32:31 PM 32.5867 -97.0928 313° West 468 539 34,000  Level Fort Worth Center
Thu 07:33:31 PM 32.6767 -97.2086 313° West 468 539 34,000  Level Fort Worth Center
Thu 07:34:31 PM 32.7728 -97.3344 312° West 468 539 34,000  Level Fort Worth Center
Thu 07:35:31 PM 32.8647 -97.4531 313° West 468 539 34,000  Level Fort Worth Center
Thu 07:36:31 PM 32.9564 -97.5644 314° West 468 539 34,000  Level Fort Worth Center
Thu 07:37:31 PM 33.0481 -97.6811 313° West 474 545 34,000  Level Fort Worth Center
Thu 07:38:31 PM 33.1522 -97.7683 325° Northwest 468 539 34,000 200 Level Fort Worth Center
Thu 07:39:31 PM 33.2647 -97.8408 332° Northwest 468 539 34,400 500 Climbing Fort Worth Center
Thu 07:40:31 PM 33.3792 -97.9111 333° Northwest 463 533 35,000 750 Climbing Fort Worth Center
Thu 07:41:31 PM 33.4853 -97.9964 326° Northwest 458 527 35,900 950 Climbing Fort Worth Center
Thu 07:42:31 PM 33.5703 -98.1139 311° West 458 527 36,900 1,000 Climbing Fort Worth Center
Thu 07:43:31 PM 33.6553 -98.2294 311° West 458 527 37,900 550 Climbing Fort Worth Center
Thu 07:44:31 PM 33.7378 -98.3400 312° West 453 521 38,000 50 Climbing Fort Worth Center
Thu 07:45:31 PM 33.8206 -98.4561 311° West 453 521 38,000  Level Fort Worth Center
Thu 07:46:31 PM 33.9050 -98.5747 311° West 458 527 38,000  Level Fort Worth Center
Thu 07:47:31 PM 33.9853 -98.6911 310° West 458 527 38,000  Level Fort Worth Center
Thu 07:48:31 PM 34.0614 -98.7922 312° West 451 519 38,000  Level Fort Worth Center
Thu 07:49:31 PM 34.1536 -98.9319 309° West 459 528 38,000  Level Fort Worth Center
Thu 07:50:31 PM 34.2356 -99.0464 311° West 459 528 38,000  Level Fort Worth Center
Thu 07:51:31 PM 34.3094 -99.1408 313° West 453 521 38,000  Level Fort Worth Center
Thu 07:52:31 PM 34.3911 -99.2658 308° West 453 521 38,000  Level Fort Worth Center
Thu 07:53:31 PM 34.4750 -99.3808 312° West 453 521 38,000  Level Fort Worth Center
Thu 07:54:31 PM 34.5544 -99.4936 311° West 453 521 38,000  Level Fort Worth Center
Thu 07:55:31 PM 34.6339 -99.6092 310° West 448 516 38,000  Level Fort Worth Center
Thu 07:56:31 PM 34.7153 -99.7275 310° West 448 516 38,000  Level Fort Worth Center
Thu 07:57:31 PM 34.7922 -99.8408 310° West 448 516 38,000  Level Fort Worth Center
Thu 07:58:22 PM 34.8567 -99.9292 312° West 445 512 38,000  Level Albuquerque Center
Thu 07:59:24 PM 34.9367 -100.0453 310° West 445 512 38,000  Level Albuquerque Center
Thu 08:00:26 PM 35.0297 -100.1803 310° West 439 505 38,000  Level Albuquerque Center
Thu 08:01:27 PM 35.1075 -100.2950 310° West 438 504 38,000  Level Albuquerque Center
Thu 08:02:29 PM 35.1864 -100.4103 310° West 439 505 38,000  Level Albuquerque Center
Thu 08:03:31 PM 35.2653 -100.5247 310° West 438 504 38,000  Level Albuquerque Center
Thu 08:04:32 PM 35.3417 -100.6397 309° West 435 501 38,000  Level Albuquerque Center
Thu 08:05:34 PM 35.4153 -100.7478 310° West 436 502 38,000  Level Albuquerque Center
Thu 08:06:36 PM 35.5086 -100.8869 310° West 440 506 38,000  Level Albuquerque Center
Thu 08:07:38 PM 35.5700 -101.0214 299° West 453 521 38,000  Level Albuquerque Center
Thu 08:08:39 PM 35.6311 -101.1558 299° West 455 524 38,000  Level Albuquerque Center
Thu 08:09:41 PM 35.6922 -101.2919 299° West 457 526 38,000  Level Albuquerque Center
Thu 08:10:43 PM 35.7531 -101.4308 298° West 463 533 38,000  Level Albuquerque Center
Thu 08:11:45 PM 35.8269 -101.5969 299° West 464 534 38,000  Level Albuquerque Center
Thu 08:12:47 PM 35.8883 -101.7378 298° West 467 537 38,000  Level Albuquerque Center
Thu 08:13:48 PM 35.9494 -101.8786 298° West 469 540 38,000  Level Albuquerque Center
Thu 08:14:50 PM 36.0178 -102.0136 302° West 469 540 38,000  Level Albuquerque Center
Thu 08:15:52 PM 36.1108 -102.1219 317° Northwest 463 533 38,000  Level Albuquerque Center
Thu 08:16:54 PM 36.2056 -102.2261 318° Northwest 459 528 38,000  Level Albuquerque Center
Thu 08:17:56 PM 36.3203 -102.3517 319° Northwest 459 528 38,000  Level Albuquerque Center
Thu 08:18:58 PM 36.4150 -102.4586 318° Northwest 460 529 38,000  Level Albuquerque Center
Thu 08:19:59 PM 36.5103 -102.5653 318° Northwest 462 532 38,000  Level Albuquerque Center
Thu 08:21:02 PM 36.6053 -102.6708 318° Northwest 460 529 38,000  Level Albuquerque Center
Thu 08:22:03 PM 36.7128 -102.7914 318° Northwest 462 532 38,000 -146 Level Albuquerque Center
Thu 08:23:05 PM 36.8036 -102.8956 317° Northwest 463 533 37,700 -677 Descending Albuquerque Center
Thu 08:24:07 PM 36.8944 -102.9972 318° Northwest 459 528 36,600 -1,113 Descending Albuquerque Center
Thu 08:25:09 PM 36.9981 -103.1147 318° Northwest 452 520 35,400 -1,073 Descending Albuquerque Center
Thu 08:26:10 PM 37.0850 -103.2142 318° Northwest 444 511 34,400 -683 Descending Albuquerque Center
Thu 08:27:12 PM 37.1867 -103.3308 318° Northwest 445 512 34,000 -194 Descending Albuquerque Center
Thu 08:28:14 PM 37.2750 -103.4333 317° Northwest 448 516 34,000 -339 Level Albuquerque Center
Thu 08:29:16 PM 37.3800 -103.5531 318° Northwest 455 524 33,300 -1,027 Descending Albuquerque Center
Thu 08:30:05 PM 37.4539 -103.6381 318° Northwest 456 525 32,100 -1,730 Descending Denver Center
Thu 08:31:07 PM 37.5417 -103.7403 317° Northwest 452 520 30,100 -2,081 Descending Denver Center
Thu 08:32:09 PM 37.6456 -103.8600 318° Northwest 459 528 27,800 -2,226 Descending Denver Center
Thu 08:33:11 PM 37.7453 -103.9775 317° Northwest 446 513 25,500 -2,081 Descending Denver Center
Thu 08:34:13 PM 37.8275 -104.0736 317° Northwest 428 493 23,500 -2,129 Descending Denver Center
Thu 08:35:15 PM 37.9189 -104.1806 317° Northwest 402 463 21,100 -2,112 Descending Denver Center
Thu 08:36:18 PM 37.9931 -104.2692 317° Northwest 386 444 19,100 -1,935 Descending Denver Center
Thu 08:37:19 PM 38.0764 -104.3664 317° Northwest 368 423 17,100 -1,951 Descending Denver Center
Thu 08:38:21 PM 38.1458 -104.4489 317° Northwest 359 413 15,100 -1,500 Descending Denver Center
Thu 08:39:23 PM 38.2136 -104.5297 317° Northwest 353 406 14,000 -532 Descending Denver Center
Thu 08:40:25 PM 38.2825 -104.6122 317° Northwest 314 361 14,000  Level Denver Center
Thu 08:41:27 PM 38.3539 -104.6447 340° North 302 348 14,000 -726 Level Denver Center
Thu 08:43:00 PM 38.5348 -104.6333 North  Level FlightAware Approximate
Thu 08:44:33 PM 38.6025 -104.6736 North 267 307 11,000  Level Denver Center
Thu 08:45:35 PM 38.6597 -104.6867 350° North 227 261 9,600 -1,694 Descending Denver Center
Thu 08:46:37 PM 38.7136 -104.6825 North 189 217 7,500 -2,032 Descending Denver Center

Login

Don't have an account? Register now (free) for customized features, flight alerts, and more!